Time;durP1;ratioP1;P1;durP2;ratioP2;P2;SDS_P1;SDS_P2;PMS_P1;PMS_P2;Temp;Humidity;BMP_temperature;BMP_pressure;BME280_temperature;BME280_humidity;BME280_pressure;Samples;Min_cycle;Max_cycle;Signal;HPM_P1;HPM_P2
2021/12/05 00:26:45;;;;;;;32.65;24.20;;;;;;;;;;10250609;28;20076;-65
2021/12/05 00:31:54;;;;;;;17.42;10.25;;;;;;;;;;10267958;28;20053;-65
2021/12/05 00:48:03;;;;;;;12.25;9.50;;;;;;;;;;10245094;28;20487;-65
2021/12/05 01:14:32;;;;;;;19.90;14.82;;;;;;;;;;10248457;28;20085;-65
2021/12/05 01:19:32;;;;;;;16.02;12.40;;;;;;;;;;10244541;28;20086;-65
2021/12/05 01:24:45;;;;;;;14.55;10.75;;;;;;;;;;10242429;28;20080;-65
2021/12/05 01:29:51;;;;;;;16.30;12.50;;;;;;;;;;10242609;28;20077;-65
2021/12/05 01:35:10;;;;;;;16.65;13.40;;;;;;;;;;10241889;28;20085;-65
2021/12/05 01:51:31;;;;;;;16.65;13.57;;;;;;;;;;10248059;28;20049;-65
2021/12/05 02:12:36;;;;;;;14.05;10.82;;;;;;;;;;10225305;28;20082;-65
2021/12/05 02:44:13;;;;;;;19.23;15.23;;;;;;;;;;10246191;28;20496;-66
2021/12/05 02:49:15;;;;;;;25.90;20.05;;;;;;;;;;10238084;28;20101;-65
2021/12/05 02:54:17;;;;;;;20.05;15.07;;;;;;;;;;10230724;28;20053;-65
2021/12/05 02:59:26;;;;;;;20.13;16.90;;;;;;;;;;10244242;28;20065;-66
2021/12/05 03:04:28;;;;;;;19.75;15.07;;;;;;;;;;10244495;28;20080;-66
2021/12/05 03:09:28;;;;;;;22.48;16.45;;;;;;;;;;10243733;28;20088;-66
2021/12/05 03:14:27;;;;;;;19.92;15.30;;;;;;;;;;10247450;28;20049;-65
2021/12/05 03:19:26;;;;;;;20.20;15.50;;;;;;;;;;10231487;28;20049;-66
2021/12/05 03:24:26;;;;;;;22.05;16.42;;;;;;;;;;10237409;28;20060;-66
2021/12/05 03:29:27;;;;;;;21.35;15.55;;;;;;;;;;10238754;28;20123;-66
2021/12/05 03:34:26;;;;;;;18.33;13.82;;;;;;;;;;10249356;28;20076;-66
2021/12/05 03:39:28;;;;;;;23.02;17.70;;;;;;;;;;10250456;28;20056;-66
2021/12/05 03:44:31;;;;;;;20.90;14.48;;;;;;;;;;10246535;28;20481;-66
2021/12/05 03:49:30;;;;;;;20.27;15.13;;;;;;;;;;10247614;28;20519;-65
2021/12/05 03:54:28;;;;;;;18.98;14.75;;;;;;;;;;10248548;28;20041;-65
2021/12/05 03:59:28;;;;;;;21.38;15.18;;;;;;;;;;10248333;28;20076;-65
2021/12/05 04:04:30;;;;;;;19.15;13.85;;;;;;;;;;10258755;28;20319;-65
2021/12/05 04:09:30;;;;;;;35.38;21.00;;;;;;;;;;10245343;28;20528;-65
2021/12/05 04:14:30;;;;;;;19.00;13.98;;;;;;;;;;10244210;28;20079;-65
2021/12/05 04:19:31;;;;;;;19.85;14.40;;;;;;;;;;10235299;28;20049;-65
2021/12/05 04:24:31;;;;;;;14.88;11.63;;;;;;;;;;10234905;28;20049;-65
2021/12/05 04:29:33;;;;;;;17.50;14.38;;;;;;;;;;10248785;28;20080;-66
2021/12/05 04:34:33;;;;;;;39.83;28.25;;;;;;;;;;10261077;28;20052;-66
2021/12/05 04:39:31;;;;;;;15.40;12.27;;;;;;;;;;10246671;28;20084;-66
2021/12/05 04:44:30;;;;;;;14.25;10.98;;;;;;;;;;10234305;28;20053;-66
2021/12/05 04:49:30;;;;;;;17.75;12.75;;;;;;;;;;10233778;28;20077;-66
2021/12/05 04:54:31;;;;;;;82.43;48.45;;;;;;;;;;10234601;28;20080;-66
2021/12/05 04:59:34;;;;;;;44.03;36.70;;;;;;;;;;10234502;28;20065;-65
2021/12/05 05:04:39;;;;;;;34.53;28.70;;;;;;;;;;10246254;28;20056;-66
2021/12/05 05:09:38;;;;;;;;;;;;;;;;;;10247849;28;20084;-65
2021/12/05 05:14:37;;;;;;;17.05;13.27;;;;;;;;;;10234412;28;19952;-65
2021/12/05 05:19:39;;;;;;;22.67;17.50;;;;;;;;;;10233982;28;20084;-66
2021/12/05 05:40:30;;;;;;;48.08;28.20;;;;;;;;;;10251853;28;20080;-66
2021/12/05 05:50:44;;;;;;;51.97;29.27;;;;;;;;;;10230512;28;20532;-66
2021/12/05 05:55:43;;;;;;;88.97;49.15;;;;;;;;;;10242852;28;20509;-66
2021/12/05 06:00:57;;;;;;;84.97;47.88;;;;;;;;;;10245459;28;20065;-65
2021/12/05 06:05:56;;;;;;;41.55;20.70;;;;;;;;;;10255038;28;20061;-65
2021/12/05 06:10:57;;;;;;;127.53;70.07;;;;;;;;;;10236096;28;20081;-66
2021/12/05 06:15:57;;;;;;;45.15;25.23;;;;;;;;;;10233072;28;20183;-66
2021/12/05 06:20:57;;;;;;;28.15;16.98;;;;;;;;;;10232870;28;20103;-66
2021/12/05 06:25:55;;;;;;;136.93;69.07;;;;;;;;;;10242673;28;20087;-66
2021/12/05 06:30:59;;;;;;;32.45;20.10;;;;;;;;;;10242785;28;20069;-66
2021/12/05 06:41:22;;;;;;;154.05;80.70;;;;;;;;;;10231617;28;20069;-66
2021/12/05 06:46:22;;;;;;;113.82;45.63;;;;;;;;;;10258409;28;20069;-66
2021/12/05 06:51:25;;;;;;;52.47;24.55;;;;;;;;;;10271085;28;20080;-66
2021/12/05 06:56:23;;;;;;;87.13;44.72;;;;;;;;;;10255255;28;20049;-66
2021/12/05 07:01:22;;;;;;;25.92;16.35;;;;;;;;;;10250207;28;20085;-66
2021/12/05 07:06:24;;;;;;;23.85;15.10;;;;;;;;;;10254579;28;20517;-65
2021/12/05 07:11:27;;;;;;;31.27;15.85;;;;;;;;;;10248631;28;20092;-66
2021/12/05 07:16:31;;;;;;;19.70;13.48;;;;;;;;;;10256201;28;20041;-65
2021/12/05 07:21:39;;;;;;;23.27;16.80;;;;;;;;;;10255128;28;20329;-64
2021/12/05 07:27:05;;;;;;;43.67;25.05;;;;;;;;;;10249989;28;20069;-63
2021/12/05 07:42:42;;;;;;;;;;;;;;;;;;10271752;28;20045;-64
2021/12/05 07:47:45;;;;;;;53.17;31.98;;;;;;;;;;10271020;28;20275;-64
2021/12/05 07:52:47;;;;;;;27.42;18.70;;;;;;;;;;10239321;28;20076;-64
2021/12/05 07:58:02;;;;;;;53.83;33.33;;;;;;;;;;10229333;28;20075;-64
2021/12/05 08:18:50;;;;;;;26.02;17.60;;;;;;;;;;10247218;28;20069;-63
2021/12/05 08:23:50;;;;;;;30.63;20.27;;;;;;;;;;10249063;28;20077;-64
2021/12/05 08:29:05;;;;;;;28.00;19.50;;;;;;;;;;10251000;28;20488;-63
2021/12/05 08:34:21;;;;;;;24.92;17.50;;;;;;;;;;10236127;28;20080;-63
2021/12/05 08:45:16;;;;;;;22.30;17.00;;;;;;;;;;10262544;28;19999;-64
2021/12/05 09:22:45;;;;;;;;;;;;;;;;;;10269402;28;20516;-65
2021/12/05 09:27:57;;;;;;;46.70;15.60;;;;;;;;;;10273287;28;20070;-64
2021/12/05 10:10:23;;;;;;;52.95;34.67;;;;;;;;;;10246250;28;20593;-67
2021/12/05 10:15:38;;;;;;;43.10;25.45;;;;;;;;;;10238139;28;20095;-67
2021/12/05 10:26:30;;;;;;;50.22;33.00;;;;;;;;;;10218085;28;20338;-66
2021/12/05 10:37:04;;;;;;;38.03;24.02;;;;;;;;;;10251000;28;20076;-66
2021/12/05 10:42:24;;;;;;;35.53;21.60;;;;;;;;;;10256712;28;20064;-66
2021/12/05 10:47:36;;;;;;;45.45;29.20;;;;;;;;;;10251563;28;20073;-66
2021/12/05 10:52:36;;;;;;;63.03;47.17;;;;;;;;;;10258173;28;20068;-65
2021/12/05 10:57:40;;;;;;;45.47;26.92;;;;;;;;;;10251153;28;20485;-65
2021/12/05 11:02:39;;;;;;;61.33;41.80;;;;;;;;;;10240980;28;20077;-65
2021/12/05 11:07:39;;;;;;;69.88;39.60;;;;;;;;;;10240938;28;20041;-61
2021/12/05 11:12:38;;;;;;;29.75;19.65;;;;;;;;;;10243872;28;20088;-61
2021/12/05 11:17:39;;;;;;;37.25;22.70;;;;;;;;;;10248587;28;20069;-60
2021/12/05 11:22:41;;;;;;;50.55;34.92;;;;;;;;;;10247073;28;20069;-60
2021/12/05 11:27:40;;;;;;;34.60;24.52;;;;;;;;;;10242692;28;20072;-61
2021/12/05 11:32:40;;;;;;;36.92;20.67;;;;;;;;;;10251493;28;20077;-61
2021/12/05 11:37:49;;;;;;;52.05;35.15;;;;;;;;;;10239876;28;20104;-61
2021/12/05 11:42:52;;;;;;;47.90;30.98;;;;;;;;;;10265722;28;20069;-60
2021/12/05 11:47:53;;;;;;;54.15;36.35;;;;;;;;;;10252751;28;20053;-61
2021/12/05 11:52:53;;;;;;;52.03;35.08;;;;;;;;;;10245529;28;21010;-61
2021/12/05 11:57:51;;;;;;;86.72;47.45;;;;;;;;;;10249260;28;20080;-60
2021/12/05 12:02:50;;;;;;;101.78;61.65;;;;;;;;;;10254786;28;20060;-60
2021/12/05 12:07:49;;;;;;;58.60;36.78;;;;;;;;;;10250394;28;20065;-61
2021/12/05 12:12:51;;;;;;;76.32;50.72;;;;;;;;;;10261893;28;20080;-61
2021/12/05 12:17:50;;;;;;;73.28;51.25;;;;;;;;;;10242028;28;20477;-61
2021/12/05 12:22:49;;;;;;;118.00;77.53;;;;;;;;;;10275677;28;20037;-61
2021/12/05 12:27:48;;;;;;;85.55;56.92;;;;;;;;;;10237075;28;20045;-61
2021/12/05 12:32:49;;;;;;;73.07;49.30;;;;;;;;;;10237392;28;20073;-62
2021/12/05 12:37:55;;;;;;;71.53;46.22;;;;;;;;;;10240274;28;20095;-61
2021/12/05 12:42:53;;;;;;;78.18;51.42;;;;;;;;;;10240524;28;20075;-62
2021/12/05 12:47:54;;;;;;;66.70;45.67;;;;;;;;;;10236243;28;20080;-62
2021/12/05 12:52:56;;;;;;;64.50;41.33;;;;;;;;;;10234080;28;20351;-60
2021/12/05 12:57:55;;;;;;;70.10;44.63;;;;;;;;;;10235502;28;20096;-60
2021/12/05 13:02:59;;;;;;;64.32;41.85;;;;;;;;;;10235098;28;20502;-60
2021/12/05 13:13:22;;;;;;;91.43;56.83;;;;;;;;;;10247534;28;20076;-60
2021/12/05 13:18:26;;;;;;;106.78;76.68;;;;;;;;;;10244970;28;20457;-60
2021/12/05 13:23:31;;;;;;;89.03;58.45;;;;;;;;;;10263372;28;20057;-60
2021/12/05 13:28:29;;;;;;;;;;;;;;;;;;10246817;28;20509;-60
2021/12/05 13:33:31;;;;;;;65.88;42.60;;;;;;;;;;10243980;28;19975;-60
2021/12/05 13:38:31;;;;;;;72.63;45.97;;;;;;;;;;10235235;28;20070;-61
2021/12/05 13:43:30;;;;;;;60.95;39.50;;;;;;;;;;10233777;28;20046;-61
2021/12/05 13:48:30;;;;;;;71.03;45.67;;;;;;;;;;10241661;28;20068;-60
2021/12/05 13:53:32;;;;;;;72.32;46.45;;;;;;;;;;10237131;28;20117;-60
2021/12/05 13:58:38;;;;;;;60.08;39.25;;;;;;;;;;10233951;28;20065;-61
2021/12/05 14:03:45;;;;;;;63.53;40.05;;;;;;;;;;10238685;28;20046;-61
2021/12/05 14:08:43;;;;;;;77.40;48.53;;;;;;;;;;10245965;28;20076;-61
2021/12/05 14:13:41;;;;;;;71.07;43.25;;;;;;;;;;10245765;28;20072;-61
2021/12/05 14:18:40;;;;;;;69.57;39.70;;;;;;;;;;10255921;28;20053;-61
2021/12/05 14:23:40;;;;;;;74.10;44.63;;;;;;;;;;10245609;28;20069;-61
2021/12/05 14:28:38;;;;;;;63.45;39.97;;;;;;;;;;10243245;28;20064;-61
2021/12/05 14:33:47;;;;;;;116.88;61.55;;;;;;;;;;10246729;28;20077;-61
2021/12/05 14:38:47;;;;;;;63.95;39.13;;;;;;;;;;10251153;28;20068;-61
2021/12/05 14:43:55;;;;;;;91.70;44.28;;;;;;;;;;10248251;28;20068;-60
2021/12/05 14:48:55;;;;;;;105.13;53.60;;;;;;;;;;10253579;28;20088;-61
2021/12/05 14:53:58;;;;;;;80.10;47.80;;;;;;;;;;10234202;28;20084;-61
2021/12/05 14:59:04;;;;;;;106.50;64.47;;;;;;;;;;10252311;28;20060;-60
2021/12/05 15:04:02;;;;;;;117.47;75.22;;;;;;;;;;10253305;28;20069;-61
2021/12/05 15:09:02;;;;;;;97.95;61.70;;;;;;;;;;10232041;28;20049;-61
2021/12/05 15:14:05;;;;;;;111.88;66.15;;;;;;;;;;10235657;28;20076;-60
2021/12/05 15:19:03;;;;;;;96.38;53.72;;;;;;;;;;10244239;28;20073;-60
2021/12/05 15:24:11;;;;;;;79.72;39.20;;;;;;;;;;10248777;28;20088;-65
2021/12/05 15:29:10;;;;;;;98.15;47.60;;;;;;;;;;10242137;28;20072;-64
2021/12/05 15:34:36;;;;;;;79.75;40.13;;;;;;;;;;10258854;28;20083;-63
2021/12/05 15:39:36;;;;;;;184.07;99.35;;;;;;;;;;10266018;28;20068;-65
2021/12/05 15:44:35;;;;;;;76.97;36.42;;;;;;;;;;10257834;28;20079;-65
2021/12/05 15:49:44;;;;;;;65.38;30.75;;;;;;;;;;10255848;28;20079;-64
2021/12/05 15:54:44;;;;;;;66.47;28.48;;;;;;;;;;10251989;28;20088;-64
2021/12/05 15:59:44;;;;;;;68.80;29.90;;;;;;;;;;10252507;28;20094;-65
2021/12/05 16:04:42;;;;;;;80.97;28.92;;;;;;;;;;10238007;28;20072;-65
2021/12/05 16:09:42;;;;;;;102.95;40.47;;;;;;;;;;10238281;28;20073;-65
2021/12/05 16:14:43;;;;;;;65.03;28.30;;;;;;;;;;10239485;28;20516;-65
2021/12/05 16:19:56;;;;;;;162.40;79.63;;;;;;;;;;10250146;28;20065;-65
2021/12/05 16:24:56;;;;;;;165.35;30.55;;;;;;;;;;10246046;28;20488;-64
2021/12/05 16:29:55;;;;;;;57.35;31.48;;;;;;;;;;10245307;28;20084;-64
2021/12/05 16:34:55;;;;;;;209.23;112.20;;;;;;;;;;10250439;28;20541;-65
2021/12/05 16:39:55;;;;;;;74.57;39.95;;;;;;;;;;10247170;28;20480;-64
2021/12/05 16:44:54;;;;;;;82.43;30.95;;;;;;;;;;10258314;28;20080;-65
2021/12/05 16:49:55;;;;;;;70.03;36.95;;;;;;;;;;10250476;28;20088;-65
2021/12/05 16:54:54;;;;;;;76.40;46.45;;;;;;;;;;10251288;28;20111;-64
2021/12/05 16:59:54;;;;;;;233.45;107.43;;;;;;;;;;10232308;28;20069;-66
2021/12/05 17:05:00;;;;;;;110.72;48.88;;;;;;;;;;10234021;28;20495;-63
2021/12/05 17:09:58;;;;;;;;;;;;;;;;;;10264789;28;20080;-64
2021/12/05 17:15:10;;;;;;;65.60;33.33;;;;;;;;;;10255886;28;19967;-64
2021/12/05 17:20:24;;;;;;;109.68;49.63;;;;;;;;;;10231249;28;20558;-64
2021/12/05 17:25:26;;;;;;;77.00;39.05;;;;;;;;;;10239897;28;20073;-65
2021/12/05 17:30:24;;;;;;;58.85;29.17;;;;;;;;;;10244460;28;20060;-63
2021/12/05 17:35:26;;;;;;;67.57;31.40;;;;;;;;;;10247496;28;20073;-65
2021/12/05 17:40:26;;;;;;;81.78;46.08;;;;;;;;;;10243342;28;20072;-64
2021/12/05 17:45:25;;;;;;;54.03;29.60;;;;;;;;;;10251490;28;20147;-64
2021/12/05 17:50:24;;;;;;;82.55;44.03;;;;;;;;;;10256679;28;20071;-64
2021/12/05 17:55:31;;;;;;;97.43;55.17;;;;;;;;;;10270331;28;20080;-64
2021/12/05 18:00:37;;;;;;;45.17;28.25;;;;;;;;;;10256138;28;20064;-64
2021/12/05 18:05:42;;;;;;;131.23;56.28;;;;;;;;;;10237373;28;20517;-64
2021/12/05 18:10:47;;;;;;;73.75;37.42;;;;;;;;;;10253500;28;20084;-64
2021/12/05 18:15:49;;;;;;;71.82;33.33;;;;;;;;;;10243485;28;20524;-64
2021/12/05 18:20:48;;;;;;;129.50;67.40;;;;;;;;;;10245013;28;20073;-63
2021/12/05 18:25:48;;;;;;;90.78;48.33;;;;;;;;;;10232922;28;20521;-62
2021/12/05 18:30:46;;;;;;;66.90;33.35;;;;;;;;;;10231845;28;20491;-63
2021/12/05 18:35:45;;;;;;;100.53;52.75;;;;;;;;;;10245431;28;20080;-65
2021/12/05 18:40:45;;;;;;;116.75;57.20;;;;;;;;;;10270072;28;20069;-65
2021/12/05 18:45:45;;;;;;;123.70;54.03;;;;;;;;;;10270638;28;20081;-64
2021/12/05 18:50:44;;;;;;;147.20;74.70;;;;;;;;;;10251943;28;20085;-63
2021/12/05 18:55:42;;;;;;;104.65;55.28;;;;;;;;;;10239320;28;20476;-64
2021/12/05 19:04:21;;;;;;;73.43;32.92;;;;;;;;;;10239204;28;20077;-62
2021/12/05 19:06:09;;;;;;;95.20;42.22;;;;;;;;;;10274104;28;20072;-63
2021/12/05 19:16:23;;;;;;;93.50;48.25;;;;;;;;;;10272269;28;20378;-62
2021/12/05 19:21:23;;;;;;;109.60;35.30;;;;;;;;;;10278235;28;20041;-62
2021/12/05 19:26:22;;;;;;;123.53;42.90;;;;;;;;;;10275855;28;20450;-61
2021/12/05 19:31:20;;;;;;;143.80;49.08;;;;;;;;;;10251500;28;20076;-64
2021/12/05 19:36:20;;;;;;;178.43;47.05;;;;;;;;;;10259908;28;20437;-63
2021/12/05 19:41:20;;;;;;;137.20;48.30;;;;;;;;;;10276722;28;20129;-64
2021/12/05 19:46:19;;;;;;;151.60;45.83;;;;;;;;;;10255055;28;20496;-64
2021/12/05 19:51:19;;;;;;;112.90;41.53;;;;;;;;;;10252139;28;20058;-64
2021/12/05 19:56:24;;;;;;;98.40;46.20;;;;;;;;;;10250753;28;20153;-64
2021/12/05 20:01:23;;;;;;;53.38;20.35;;;;;;;;;;10241029;28;20498;-65
2021/12/05 20:06:21;;;;;;;60.60;28.67;;;;;;;;;;10275016;28;20080;-65
2021/12/05 20:11:20;;;;;;;111.78;51.53;;;;;;;;;;10252854;28;20076;-65
2021/12/05 20:16:20;;;;;;;87.05;26.17;;;;;;;;;;10237272;28;20084;-63
2021/12/05 20:21:18;;;;;;;86.15;25.73;;;;;;;;;;10236852;28;20076;-63
2021/12/05 20:26:17;;;;;;;92.90;35.88;;;;;;;;;;10236637;28;20529;-64
2021/12/05 20:31:17;;;;;;;90.10;23.33;;;;;;;;;;10236524;28;20081;-64
2021/12/05 20:36:17;;;;;;;90.60;19.08;;;;;;;;;;10245506;28;20084;-64
2021/12/05 20:41:16;;;;;;;109.50;25.58;;;;;;;;;;10236354;28;20077;-62
2021/12/05 20:46:14;;;;;;;86.60;22.13;;;;;;;;;;10254116;28;20076;-62
2021/12/05 20:51:13;;;;;;;101.93;20.73;;;;;;;;;;10247434;28;20064;-62
2021/12/05 20:56:13;;;;;;;51.53;20.98;;;;;;;;;;10242209;28;20085;-63
2021/12/05 21:01:14;;;;;;;52.78;17.65;;;;;;;;;;10241025;28;20179;-63
2021/12/05 21:06:13;;;;;;;68.20;26.45;;;;;;;;;;10240327;28;20340;-63
2021/12/05 21:11:13;;;;;;;39.88;14.68;;;;;;;;;;10234654;28;20072;-63
2021/12/05 21:16:12;;;;;;;36.88;14.00;;;;;;;;;;10238711;28;20447;-63
2021/12/05 21:21:12;;;;;;;38.72;15.13;;;;;;;;;;10239732;28;20064;-64
2021/12/05 21:26:14;;;;;;;36.33;14.07;;;;;;;;;;10236438;28;20506;-63
2021/12/05 21:31:13;;;;;;;25.75;9.45;;;;;;;;;;10235792;28;20049;-62
2021/12/05 21:36:12;;;;;;;23.30;9.75;;;;;;;;;;10245974;28;20084;-63
2021/12/05 21:41:12;;;;;;;43.13;20.17;;;;;;;;;;10243869;28;20073;-63
2021/12/05 21:46:13;;;;;;;22.05;11.27;;;;;;;;;;10248332;28;20516;-62
2021/12/05 21:51:13;;;;;;;12.38;7.88;;;;;;;;;;10262765;28;20087;-63
2021/12/05 21:56:12;;;;;;;26.73;10.07;;;;;;;;;;10272430;28;20085;-63
2021/12/05 22:01:12;;;;;;;36.40;15.65;;;;;;;;;;10272778;28;20529;-63
2021/12/05 22:06:11;;;;;;;49.55;21.75;;;;;;;;;;10268602;28;20068;-63
2021/12/05 22:11:10;;;;;;;28.67;14.80;;;;;;;;;;10234048;28;20474;-63
2021/12/05 22:16:08;;;;;;;29.90;17.88;;;;;;;;;;10241884;28;20514;-64
2021/12/05 22:21:12;;;;;;;39.45;19.75;;;;;;;;;;10245587;28;20041;-63
2021/12/05 22:26:11;;;;;;;31.20;16.15;;;;;;;;;;10237824;28;20072;-61
2021/12/05 22:31:09;;;;;;;24.50;13.30;;;;;;;;;;10241935;28;20069;-63
2021/12/05 22:36:10;;;;;;;24.83;12.45;;;;;;;;;;10241621;28;20092;-63
2021/12/05 22:41:09;;;;;;;27.92;13.70;;;;;;;;;;10241538;28;20075;-63
2021/12/05 22:46:09;;;;;;;18.00;9.85;;;;;;;;;;10241322;28;20103;-64
2021/12/05 22:51:09;;;;;;;24.30;9.75;;;;;;;;;;10241056;28;20041;-62
2021/12/05 22:56:08;;;;;;;20.45;12.07;;;;;;;;;;10240467;28;20211;-63
2021/12/05 23:01:07;;;;;;;33.00;18.13;;;;;;;;;;10240663;28;20562;-64
2021/12/05 23:06:07;;;;;;;32.17;13.80;;;;;;;;;;10255320;28;20455;-64
2021/12/05 23:11:09;;;;;;;24.98;12.23;;;;;;;;;;10257541;28;20068;-63
2021/12/05 23:16:08;;;;;;;40.15;13.25;;;;;;;;;;10248921;28;20087;-64
2021/12/05 23:21:08;;;;;;;37.13;14.35;;;;;;;;;;10253089;28;20073;-63
2021/12/05 23:26:07;;;;;;;36.72;14.88;;;;;;;;;;10250918;28;20038;-63
2021/12/05 23:31:06;;;;;;;40.33;17.27;;;;;;;;;;10239794;28;20533;-64
2021/12/05 23:36:05;;;;;;;42.88;13.00;;;;;;;;;;10237013;28;20057;-64
2021/12/05 23:41:04;;;;;;;39.72;13.90;;;;;;;;;;10238430;28;20084;-63
2021/12/05 23:46:04;;;;;;;51.45;12.05;;;;;;;;;;10238677;28;20061;-63
2021/12/05 23:51:04;;;;;;;40.05;13.60;;;;;;;;;;10237863;28;20076;-64
2021/12/05 23:56:03;;;;;;;48.35;13.15;;;;;;;;;;10249522;28;20101;-63
